sensor_id;sensor_type;location;lat;lon;timestamp;temperature;humidity
3051;DHT22;1535;51.098;6.414;2022-08-19T00:02:07;17.30;99.90
3051;DHT22;1535;51.098;6.414;2022-08-19T00:04:36;17.30;99.90
3051;DHT22;1535;51.098;6.414;2022-08-19T00:07:04;17.20;99.90
3051;DHT22;1535;51.098;6.414;2022-08-19T00:09:33;17.10;99.90
3051;DHT22;1535;51.098;6.414;2022-08-19T00:12:00;17.00;99.90
3051;DHT22;1535;51.098;6.414;2022-08-19T00:14:28;17.00;99.90
3051;DHT22;1535;51.098;6.414;2022-08-19T00:16:58;16.90;99.90
3051;DHT22;1535;51.098;6.414;2022-08-19T00:19:28;16.80;99.90
3051;DHT22;1535;51.098;6.414;2022-08-19T00:21:58;16.80;99.90
3051;DHT22;1535;51.098;6.414;2022-08-19T00:24:25;16.80;99.90
3051;DHT22;1535;51.098;6.414;2022-08-19T00:26:55;16.80;99.90
3051;DHT22;1535;51.098;6.414;2022-08-19T00:29:24;16.80;99.90
3051;DHT22;1535;51.098;6.414;2022-08-19T00:31:51;16.80;99.90
3051;DHT22;1535;51.098;6.414;2022-08-19T00:34:19;16.80;99.90
3051;DHT22;1535;51.098;6.414;2022-08-19T00:36:46;16.80;99.90
3051;DHT22;1535;51.098;6.414;2022-08-19T00:39:16;16.80;99.90
3051;DHT22;1535;51.098;6.414;2022-08-19T00:41:44;16.80;99.90
3051;DHT22;1535;51.098;6.414;2022-08-19T00:44:15;16.80;99.90
3051;DHT22;1535;51.098;6.414;2022-08-19T00:46:43;16.70;99.90
3051;DHT22;1535;51.098;6.414;2022-08-19T00:49:13;16.70;99.90
3051;DHT22;1535;51.098;6.414;2022-08-19T00:51:42;16.80;99.90
3051;DHT22;1535;51.098;6.414;2022-08-19T00:54:10;16.80;99.90
3051;DHT22;1535;51.098;6.414;2022-08-19T00:56:40;16.70;99.90
3051;DHT22;1535;51.098;6.414;2022-08-19T00:59:07;16.70;99.90
3051;DHT22;1535;51.098;6.414;2022-08-19T01:01:36;16.70;99.90
3051;DHT22;1535;51.098;6.414;2022-08-19T01:04:04;16.70;99.90
3051;DHT22;1535;51.098;6.414;2022-08-19T01:06:31;16.60;99.90
3051;DHT22;1535;51.098;6.414;2022-08-19T01:08:58;16.60;99.90
3051;DHT22;1535;51.098;6.414;2022-08-19T01:11:26;16.70;99.90
3051;DHT22;1535;51.098;6.414;2022-08-19T01:13:56;16.70;99.90
3051;DHT22;1535;51.098;6.414;2022-08-19T01:16:27;16.60;99.90
3051;DHT22;1535;51.098;6.414;2022-08-19T01:18:54;16.60;99.90
3051;DHT22;1535;51.098;6.414;2022-08-19T01:21:26;16.70;99.90
3051;DHT22;1535;51.098;6.414;2022-08-19T01:23:56;16.70;99.90
3051;DHT22;1535;51.098;6.414;2022-08-19T01:26:25;16.60;99.90
3051;DHT22;1535;51.098;6.414;2022-08-19T01:28:55;16.50;99.90
3051;DHT22;1535;51.098;6.414;2022-08-19T01:31:25;16.60;99.90
3051;DHT22;1535;51.098;6.414;2022-08-19T01:33:56;16.50;99.90
3051;DHT22;1535;51.098;6.414;2022-08-19T01:36:27;16.50;99.90
3051;DHT22;1535;51.098;6.414;2022-08-19T01:38:58;16.50;99.90
3051;DHT22;1535;51.098;6.414;2022-08-19T01:41:26;16.40;99.90
3051;DHT22;1535;51.098;6.414;2022-08-19T01:43:53;16.40;99.90
3051;DHT22;1535;51.098;6.414;2022-08-19T01:46:22;16.40;99.90
3051;DHT22;1535;51.098;6.414;2022-08-19T01:48:50;16.10;99.90
3051;DHT22;1535;51.098;6.414;2022-08-19T01:51:18;15.90;99.90
3051;DHT22;1535;51.098;6.414;2022-08-19T01:53:48;15.80;99.90
3051;DHT22;1535;51.098;6.414;2022-08-19T01:56:17;15.80;99.90
3051;DHT22;1535;51.098;6.414;2022-08-19T01:58:49;15.70;99.90
3051;DHT22;1535;51.098;6.414;2022-08-19T02:01:18;15.70;99.90
3051;DHT22;1535;51.098;6.414;2022-08-19T02:03:46;15.90;99.90
3051;DHT22;1535;51.098;6.414;2022-08-19T02:06:13;15.90;99.90
3051;DHT22;1535;51.098;6.414;2022-08-19T02:08:42;15.90;99.90
3051;DHT22;1535;51.098;6.414;2022-08-19T02:11:20;15.70;99.90
3051;DHT22;1535;51.098;6.414;2022-08-19T02:13:48;15.60;99.90
3051;DHT22;1535;51.098;6.414;2022-08-19T02:16:18;15.50;99.90
3051;DHT22;1535;51.098;6.414;2022-08-19T02:18:47;15.50;99.90
3051;DHT22;1535;51.098;6.414;2022-08-19T02:21:15;15.50;99.90
3051;DHT22;1535;51.098;6.414;2022-08-19T02:23:42;15.60;99.90
3051;DHT22;1535;51.098;6.414;2022-08-19T02:26:09;15.70;99.90
3051;DHT22;1535;51.098;6.414;2022-08-19T02:28:38;15.70;99.90
3051;DHT22;1535;51.098;6.414;2022-08-19T02:31:09;15.80;99.90
3051;DHT22;1535;51.098;6.414;2022-08-19T02:33:36;15.80;99.90
3051;DHT22;1535;51.098;6.414;2022-08-19T02:36:04;15.70;99.90
3051;DHT22;1535;51.098;6.414;2022-08-19T02:38:31;15.60;99.90
3051;DHT22;1535;51.098;6.414;2022-08-19T02:41:01;15.60;99.90
3051;DHT22;1535;51.098;6.414;2022-08-19T02:43:30;15.50;99.90
3051;DHT22;1535;51.098;6.414;2022-08-19T02:45:59;15.50;99.90
3051;DHT22;1535;51.098;6.414;2022-08-19T02:48:26;15.50;99.90
3051;DHT22;1535;51.098;6.414;2022-08-19T02:50:53;15.50;99.90
3051;DHT22;1535;51.098;6.414;2022-08-19T02:53:26;15.50;99.90
3051;DHT22;1535;51.098;6.414;2022-08-19T02:55:54;15.60;99.90
3051;DHT22;1535;51.098;6.414;2022-08-19T02:58:22;15.60;99.90
3051;DHT22;1535;51.098;6.414;2022-08-19T03:00:51;15.70;99.90
3051;DHT22;1535;51.098;6.414;2022-08-19T03:03:20;15.70;99.90
3051;DHT22;1535;51.098;6.414;2022-08-19T03:05:47;15.70;99.90
3051;DHT22;1535;51.098;6.414;2022-08-19T03:08:15;15.80;99.90
3051;DHT22;1535;51.098;6.414;2022-08-19T03:10:43;15.80;99.90
3051;DHT22;1535;51.098;6.414;2022-08-19T03:13:12;15.80;99.90
3051;DHT22;1535;51.098;6.414;2022-08-19T03:15:42;15.90;99.90
3051;DHT22;1535;51.098;6.414;2022-08-19T03:18:10;16.00;99.90
3051;DHT22;1535;51.098;6.414;2022-08-19T03:20:42;16.00;99.90
3051;DHT22;1535;51.098;6.414;2022-08-19T03:23:09;16.10;99.90
3051;DHT22;1535;51.098;6.414;2022-08-19T03:25:40;16.10;99.90
3051;DHT22;1535;51.098;6.414;2022-08-19T03:28:09;16.10;99.90
3051;DHT22;1535;51.098;6.414;2022-08-19T03:30:38;16.10;99.90
3051;DHT22;1535;51.098;6.414;2022-08-19T03:33:06;16.10;99.90
3051;DHT22;1535;51.098;6.414;2022-08-19T03:35:35;16.10;99.90
3051;DHT22;1535;51.098;6.414;2022-08-19T03:38:04;16.10;99.90
3051;DHT22;1535;51.098;6.414;2022-08-19T03:40:31;16.00;99.90
3051;DHT22;1535;51.098;6.414;2022-08-19T03:43:00;16.00;99.90
3051;DHT22;1535;51.098;6.414;2022-08-19T03:45:28;16.00;99.90
3051;DHT22;1535;51.098;6.414;2022-08-19T03:47:55;16.00;99.90
3051;DHT22;1535;51.098;6.414;2022-08-19T03:50:22;16.10;99.90
3051;DHT22;1535;51.098;6.414;2022-08-19T03:52:51;16.10;99.90
3051;DHT22;1535;51.098;6.414;2022-08-19T03:55:19;16.10;99.90
3051;DHT22;1535;51.098;6.414;2022-08-19T03:57:46;16.10;99.90
3051;DHT22;1535;51.098;6.414;2022-08-19T04:00:15;16.10;99.90
3051;DHT22;1535;51.098;6.414;2022-08-19T04:02:42;16.10;99.90
3051;DHT22;1535;51.098;6.414;2022-08-19T04:05:09;16.10;99.90
3051;DHT22;1535;51.098;6.414;2022-08-19T04:07:36;16.10;99.90
3051;DHT22;1535;51.098;6.414;2022-08-19T04:10:04;16.10;99.90
3051;DHT22;1535;51.098;6.414;2022-08-19T04:12:32;16.10;99.90
3051;DHT22;1535;51.098;6.414;2022-08-19T04:14:59;16.10;99.90
3051;DHT22;1535;51.098;6.414;2022-08-19T04:17:26;16.00;99.90
3051;DHT22;1535;51.098;6.414;2022-08-19T04:19:53;16.10;99.90
3051;DHT22;1535;51.098;6.414;2022-08-19T04:22:20;16.10;99.90
3051;DHT22;1535;51.098;6.414;2022-08-19T04:24:47;16.10;99.90
3051;DHT22;1535;51.098;6.414;2022-08-19T04:27:14;16.20;99.90
3051;DHT22;1535;51.098;6.414;2022-08-19T04:29:43;16.30;99.90
3051;DHT22;1535;51.098;6.414;2022-08-19T04:32:10;16.40;99.90
3051;DHT22;1535;51.098;6.414;2022-08-19T04:34:39;16.50;99.90
3051;DHT22;1535;51.098;6.414;2022-08-19T04:37:06;16.60;99.90
3051;DHT22;1535;51.098;6.414;2022-08-19T04:39:37;16.70;99.90
3051;DHT22;1535;51.098;6.414;2022-08-19T04:42:21;16.70;99.90
3051;DHT22;1535;51.098;6.414;2022-08-19T04:45:10;16.80;99.90
3051;DHT22;1535;51.098;6.414;2022-08-19T04:47:38;16.90;99.90
3051;DHT22;1535;51.098;6.414;2022-08-19T04:50:06;16.90;99.90
3051;DHT22;1535;51.098;6.414;2022-08-19T04:52:34;16.90;99.90
3051;DHT22;1535;51.098;6.414;2022-08-19T04:55:01;17.00;99.90
3051;DHT22;1535;51.098;6.414;2022-08-19T04:57:28;17.00;99.90
3051;DHT22;1535;51.098;6.414;2022-08-19T04:59:55;17.10;99.90
3051;DHT22;1535;51.098;6.414;2022-08-19T05:02:23;17.10;99.90
3051;DHT22;1535;51.098;6.414;2022-08-19T05:04:51;17.10;99.90
3051;DHT22;1535;51.098;6.414;2022-08-19T05:07:22;17.10;99.90
3051;DHT22;1535;51.098;6.414;2022-08-19T05:09:49;17.20;99.90
3051;DHT22;1535;51.098;6.414;2022-08-19T05:12:16;17.30;99.90
3051;DHT22;1535;51.098;6.414;2022-08-19T05:14:43;17.30;99.90
3051;DHT22;1535;51.098;6.414;2022-08-19T05:17:11;17.30;99.90
3051;DHT22;1535;51.098;6.414;2022-08-19T05:19:39;17.20;99.90
3051;DHT22;1535;51.098;6.414;2022-08-19T05:22:24;17.30;99.90
3051;DHT22;1535;51.098;6.414;2022-08-19T05:25:01;17.30;99.90
3051;DHT22;1535;51.098;6.414;2022-08-19T05:27:28;17.40;99.90
3051;DHT22;1535;51.098;6.414;2022-08-19T05:29:55;17.40;99.90
3051;DHT22;1535;51.098;6.414;2022-08-19T05:32:22;17.40;99.90
3051;DHT22;1535;51.098;6.414;2022-08-19T05:34:52;17.40;99.90
3051;DHT22;1535;51.098;6.414;2022-08-19T05:37:18;17.50;99.90
3051;DHT22;1535;51.098;6.414;2022-08-19T05:39:46;17.50;99.90
3051;DHT22;1535;51.098;6.414;2022-08-19T05:42:12;17.50;99.90
3051;DHT22;1535;51.098;6.414;2022-08-19T05:44:41;17.60;99.90
3051;DHT22;1535;51.098;6.414;2022-08-19T05:47:11;17.60;99.90
3051;DHT22;1535;51.098;6.414;2022-08-19T05:49:38;17.60;99.90
3051;DHT22;1535;51.098;6.414;2022-08-19T05:52:10;17.70;99.90
3051;DHT22;1535;51.098;6.414;2022-08-19T05:54:38;17.80;99.90
3051;DHT22;1535;51.098;6.414;2022-08-19T05:57:07;17.80;99.90
3051;DHT22;1535;51.098;6.414;2022-08-19T05:59:34;17.90;99.90
3051;DHT22;1535;51.098;6.414;2022-08-19T06:02:03;18.00;99.90
3051;DHT22;1535;51.098;6.414;2022-08-19T06:04:30;18.10;99.90
3051;DHT22;1535;51.098;6.414;2022-08-19T06:06:57;18.10;99.90
3051;DHT22;1535;51.098;6.414;2022-08-19T06:09:25;18.20;99.90
3051;DHT22;1535;51.098;6.414;2022-08-19T06:11:54;18.30;99.90
3051;DHT22;1535;51.098;6.414;2022-08-19T06:14:25;18.30;99.90
3051;DHT22;1535;51.098;6.414;2022-08-19T06:16:52;18.40;99.90
3051;DHT22;1535;51.098;6.414;2022-08-19T06:19:21;18.40;99.90
3051;DHT22;1535;51.098;6.414;2022-08-19T06:21:51;18.40;99.90
3051;DHT22;1535;51.098;6.414;2022-08-19T06:24:20;18.50;99.90
3051;DHT22;1535;51.098;6.414;2022-08-19T06:26:51;18.60;99.90
3051;DHT22;1535;51.098;6.414;2022-08-19T06:29:20;18.60;99.90
3051;DHT22;1535;51.098;6.414;2022-08-19T06:31:52;18.60;99.90
3051;DHT22;1535;51.098;6.414;2022-08-19T06:34:20;18.70;99.90
3051;DHT22;1535;51.098;6.414;2022-08-19T06:36:48;18.70;99.90
3051;DHT22;1535;51.098;6.414;2022-08-19T06:39:18;18.80;99.90
3051;DHT22;1535;51.098;6.414;2022-08-19T06:41:46;19.00;99.90
3051;DHT22;1535;51.098;6.414;2022-08-19T06:44:16;19.00;99.90
3051;DHT22;1535;51.098;6.414;2022-08-19T06:46:43;19.00;99.90
3051;DHT22;1535;51.098;6.414;2022-08-19T06:49:10;19.10;99.90
3051;DHT22;1535;51.098;6.414;2022-08-19T06:51:40;19.20;99.90
3051;DHT22;1535;51.098;6.414;2022-08-19T06:54:07;19.40;99.90
3051;DHT22;1535;51.098;6.414;2022-08-19T06:56:34;19.60;99.90
3051;DHT22;1535;51.098;6.414;2022-08-19T06:59:03;19.90;99.90
3051;DHT22;1535;51.098;6.414;2022-08-19T07:01:36;20.20;99.90
3051;DHT22;1535;51.098;6.414;2022-08-19T07:04:05;20.30;99.90
3051;DHT22;1535;51.098;6.414;2022-08-19T07:06:34;20.10;99.90
3051;DHT22;1535;51.098;6.414;2022-08-19T07:09:02;20.20;99.90
3051;DHT22;1535;51.098;6.414;2022-08-19T07:11:29;20.30;99.90
3051;DHT22;1535;51.098;6.414;2022-08-19T07:13:56;20.40;99.90
3051;DHT22;1535;51.098;6.414;2022-08-19T07:16:23;20.60;99.90
3051;DHT22;1535;51.098;6.414;2022-08-19T07:18:51;20.70;99.90
3051;DHT22;1535;51.098;6.414;2022-08-19T07:21:21;20.90;99.90
3051;DHT22;1535;51.098;6.414;2022-08-19T07:23:48;21.00;99.90
3051;DHT22;1535;51.098;6.414;2022-08-19T07:26:19;21.00;99.90
3051;DHT22;1535;51.098;6.414;2022-08-19T07:28:47;21.00;99.90
3051;DHT22;1535;51.098;6.414;2022-08-19T07:31:16;21.10;99.90
3051;DHT22;1535;51.098;6.414;2022-08-19T07:33:45;21.10;99.90
3051;DHT22;1535;51.098;6.414;2022-08-19T07:36:16;21.10;99.90
3051;DHT22;1535;51.098;6.414;2022-08-19T07:38:45;21.20;99.90
3051;DHT22;1535;51.098;6.414;2022-08-19T07:41:19;21.10;99.90
3051;DHT22;1535;51.098;6.414;2022-08-19T07:43:47;21.20;99.90
3051;DHT22;1535;51.098;6.414;2022-08-19T07:46:16;21.10;99.90
3051;DHT22;1535;51.098;6.414;2022-08-19T07:48:44;21.00;99.90
3051;DHT22;1535;51.098;6.414;2022-08-19T07:51:16;21.10;99.90
3051;DHT22;1535;51.098;6.414;2022-08-19T07:53:45;21.20;99.90
3051;DHT22;1535;51.098;6.414;2022-08-19T07:56:13;21.20;99.90
3051;DHT22;1535;51.098;6.414;2022-08-19T07:58:42;21.30;99.90
3051;DHT22;1535;51.098;6.414;2022-08-19T08:01:11;21.50;99.90
3051;DHT22;1535;51.098;6.414;2022-08-19T08:03:38;21.80;99.90
3051;DHT22;1535;51.098;6.414;2022-08-19T08:06:25;21.70;99.90
3051;DHT22;1535;51.098;6.414;2022-08-19T08:09:10;21.70;99.90
3051;DHT22;1535;51.098;6.414;2022-08-19T08:11:37;21.70;99.90
3051;DHT22;1535;51.098;6.414;2022-08-19T08:14:04;21.70;99.90
3051;DHT22;1535;51.098;6.414;2022-08-19T08:16:34;21.90;99.90
3051;DHT22;1535;51.098;6.414;2022-08-19T08:19:03;22.10;99.90
3051;DHT22;1535;51.098;6.414;2022-08-19T08:21:32;22.50;99.90
3051;DHT22;1535;51.098;6.414;2022-08-19T08:23:59;22.70;99.90
3051;DHT22;1535;51.098;6.414;2022-08-19T08:26:26;22.70;99.90
3051;DHT22;1535;51.098;6.414;2022-08-19T08:28:53;22.80;99.90
3051;DHT22;1535;51.098;6.414;2022-08-19T08:31:20;22.90;99.90
3051;DHT22;1535;51.098;6.414;2022-08-19T08:33:47;22.90;99.90
3051;DHT22;1535;51.098;6.414;2022-08-19T08:36:15;22.90;99.90
3051;DHT22;1535;51.098;6.414;2022-08-19T08:38:44;23.20;99.90
3051;DHT22;1535;51.098;6.414;2022-08-19T08:41:19;23.50;99.90
3051;DHT22;1535;51.098;6.414;2022-08-19T08:43:50;23.70;99.90
3051;DHT22;1535;51.098;6.414;2022-08-19T08:46:21;24.10;99.90
3051;DHT22;1535;51.098;6.414;2022-08-19T08:48:53;24.20;99.90
3051;DHT22;1535;51.098;6.414;2022-08-19T08:51:23;24.30;99.90
3051;DHT22;1535;51.098;6.414;2022-08-19T08:53:54;24.50;99.90
3051;DHT22;1535;51.098;6.414;2022-08-19T08:56:21;24.90;99.90
3051;DHT22;1535;51.098;6.414;2022-08-19T08:59:05;25.10;99.90
3051;DHT22;1535;51.098;6.414;2022-08-19T09:01:35;25.40;99.90
3051;DHT22;1535;51.098;6.414;2022-08-19T09:04:03;25.30;99.90
3051;DHT22;1535;51.098;6.414;2022-08-19T09:06:36;25.60;99.90
3051;DHT22;1535;51.098;6.414;2022-08-19T09:09:14;25.30;99.90
3051;DHT22;1535;51.098;6.414;2022-08-19T09:11:55;24.80;99.90
3051;DHT22;1535;51.098;6.414;2022-08-19T09:14:36;24.30;99.90
3051;DHT22;1535;51.098;6.414;2022-08-19T09:17:07;24.30;99.90
3051;DHT22;1535;51.098;6.414;2022-08-19T09:19:35;24.70;99.90
3051;DHT22;1535;51.098;6.414;2022-08-19T09:22:02;24.90;99.90
3051;DHT22;1535;51.098;6.414;2022-08-19T09:24:32;25.50;99.90
3051;DHT22;1535;51.098;6.414;2022-08-19T09:26:58;25.40;99.90
3051;DHT22;1535;51.098;6.414;2022-08-19T09:29:25;25.60;99.90
3051;DHT22;1535;51.098;6.414;2022-08-19T09:31:52;25.70;99.90
3051;DHT22;1535;51.098;6.414;2022-08-19T09:34:19;25.90;99.90
3051;DHT22;1535;51.098;6.414;2022-08-19T09:36:47;25.90;99.90
3051;DHT22;1535;51.098;6.414;2022-08-19T09:39:19;26.20;99.90
3051;DHT22;1535;51.098;6.414;2022-08-19T09:41:47;26.50;99.90
3051;DHT22;1535;51.098;6.414;2022-08-19T09:44:15;26.40;99.90
3051;DHT22;1535;51.098;6.414;2022-08-19T09:46:42;26.70;99.90
3051;DHT22;1535;51.098;6.414;2022-08-19T09:49:09;26.90;99.90
3051;DHT22;1535;51.098;6.414;2022-08-19T09:51:36;26.70;99.90
3051;DHT22;1535;51.098;6.414;2022-08-19T09:54:03;26.70;99.90
3051;DHT22;1535;51.098;6.414;2022-08-19T09:56:31;26.90;99.90
3051;DHT22;1535;51.098;6.414;2022-08-19T09:59:00;26.70;99.90
3051;DHT22;1535;51.098;6.414;2022-08-19T10:01:29;26.40;99.90
3051;DHT22;1535;51.098;6.414;2022-08-19T10:03:58;26.30;99.90
3051;DHT22;1535;51.098;6.414;2022-08-19T10:06:28;26.20;99.90
3051;DHT22;1535;51.098;6.414;2022-08-19T10:08:58;26.80;99.90
3051;DHT22;1535;51.098;6.414;2022-08-19T10:11:25;27.40;99.90
3051;DHT22;1535;51.098;6.414;2022-08-19T10:13:53;27.50;99.90
3051;DHT22;1535;51.098;6.414;2022-08-19T10:16:22;27.70;99.90
3051;DHT22;1535;51.098;6.414;2022-08-19T10:18:50;27.60;99.90
3051;DHT22;1535;51.098;6.414;2022-08-19T10:21:20;28.40;99.90
3051;DHT22;1535;51.098;6.414;2022-08-19T10:23:49;29.10;99.90
3051;DHT22;1535;51.098;6.414;2022-08-19T10:26:19;29.60;99.90
3051;DHT22;1535;51.098;6.414;2022-08-19T10:28:47;30.20;99.90
3051;DHT22;1535;51.098;6.414;2022-08-19T10:31:17;30.10;99.90
3051;DHT22;1535;51.098;6.414;2022-08-19T10:33:47;29.70;99.90
3051;DHT22;1535;51.098;6.414;2022-08-19T10:36:16;29.00;99.90
3051;DHT22;1535;51.098;6.414;2022-08-19T10:38:45;28.40;99.90
3051;DHT22;1535;51.098;6.414;2022-08-19T10:41:14;27.80;99.90
3051;DHT22;1535;51.098;6.414;2022-08-19T10:43:41;27.80;99.90
3051;DHT22;1535;51.098;6.414;2022-08-19T10:46:12;27.60;99.90
3051;DHT22;1535;51.098;6.414;2022-08-19T10:48:40;27.80;99.90
3051;DHT22;1535;51.098;6.414;2022-08-19T10:51:09;28.00;99.90
3051;DHT22;1535;51.098;6.414;2022-08-19T10:53:55;27.80;99.90
3051;DHT22;1535;51.098;6.414;2022-08-19T10:56:22;27.80;99.90
3051;DHT22;1535;51.098;6.414;2022-08-19T10:59:06;28.20;99.90
3051;DHT22;1535;51.098;6.414;2022-08-19T11:01:35;27.90;99.90
3051;DHT22;1535;51.098;6.414;2022-08-19T11:04:03;28.20;99.90
3051;DHT22;1535;51.098;6.414;2022-08-19T11:06:32;28.70;99.90
3051;DHT22;1535;51.098;6.414;2022-08-19T11:08:59;29.00;99.90
3051;DHT22;1535;51.098;6.414;2022-08-19T11:11:27;29.30;99.90
3051;DHT22;1535;51.098;6.414;2022-08-19T11:13:54;29.60;99.80
3051;DHT22;1535;51.098;6.414;2022-08-19T11:16:22;29.10;99.60
3051;DHT22;1535;51.098;6.414;2022-08-19T11:18:51;29.70;99.50
3051;DHT22;1535;51.098;6.414;2022-08-19T11:21:20;29.60;98.00
3051;DHT22;1535;51.098;6.414;2022-08-19T11:23:52;29.60;98.20
3051;DHT22;1535;51.098;6.414;2022-08-19T11:26:20;30.30;96.80
3051;DHT22;1535;51.098;6.414;2022-08-19T11:28:48;30.30;95.50
3051;DHT22;1535;51.098;6.414;2022-08-19T11:31:19;30.60;95.60
3051;DHT22;1535;51.098;6.414;2022-08-19T11:33:46;30.90;94.20
3051;DHT22;1535;51.098;6.414;2022-08-19T11:36:16;30.80;93.30
3051;DHT22;1535;51.098;6.414;2022-08-19T11:38:44;30.60;92.00
3051;DHT22;1535;51.098;6.414;2022-08-19T11:41:16;30.30;93.80
3051;DHT22;1535;51.098;6.414;2022-08-19T11:43:43;30.30;93.70
3051;DHT22;1535;51.098;6.414;2022-08-19T11:46:16;30.20;92.90
3051;DHT22;1535;51.098;6.414;2022-08-19T11:48:43;30.00;93.50
3051;DHT22;1535;51.098;6.414;2022-08-19T11:51:13;30.30;92.20
3051;DHT22;1535;51.098;6.414;2022-08-19T11:53:40;30.20;92.30
3051;DHT22;1535;51.098;6.414;2022-08-19T11:56:08;30.40;91.50
3051;DHT22;1535;51.098;6.414;2022-08-19T11:58:39;30.40;91.60
3051;DHT22;1535;51.098;6.414;2022-08-19T12:01:07;30.80;91.20
3051;DHT22;1535;51.098;6.414;2022-08-19T12:03:36;31.30;90.00
3051;DHT22;1535;51.098;6.414;2022-08-19T12:06:05;31.00;91.60
3051;DHT22;1535;51.098;6.414;2022-08-19T12:08:32;31.30;90.20
3051;DHT22;1535;51.098;6.414;2022-08-19T12:10:59;31.50;90.60
3051;DHT22;1535;51.098;6.414;2022-08-19T12:13:27;32.00;88.70
3051;DHT22;1535;51.098;6.414;2022-08-19T12:15:57;32.10;87.10
3051;DHT22;1535;51.098;6.414;2022-08-19T12:18:25;32.20;86.50
3051;DHT22;1535;51.098;6.414;2022-08-19T12:20:53;32.90;84.30
3051;DHT22;1535;51.098;6.414;2022-08-19T12:23:21;33.20;83.50
3051;DHT22;1535;51.098;6.414;2022-08-19T12:25:49;33.10;77.80
3051;DHT22;1535;51.098;6.414;2022-08-19T12:28:18;32.80;76.90
3051;DHT22;1535;51.098;6.414;2022-08-19T12:30:45;33.00;77.60
3051;DHT22;1535;51.098;6.414;2022-08-19T12:33:14;33.00;76.80
3051;DHT22;1535;51.098;6.414;2022-08-19T12:35:42;32.90;76.90
3051;DHT22;1535;51.098;6.414;2022-08-19T12:38:12;32.50;77.70
3051;DHT22;1535;51.098;6.414;2022-08-19T12:40:40;32.20;73.00
3051;DHT22;1535;51.098;6.414;2022-08-19T12:43:07;32.00;74.60
3051;DHT22;1535;51.098;6.414;2022-08-19T12:45:34;32.20;75.30
3051;DHT22;1535;51.098;6.414;2022-08-19T12:48:01;32.40;75.10
3051;DHT22;1535;51.098;6.414;2022-08-19T12:50:30;32.40;71.60
3051;DHT22;1535;51.098;6.414;2022-08-19T12:52:57;32.20;69.70
3051;DHT22;1535;51.098;6.414;2022-08-19T12:55:24;32.70;66.70
3051;DHT22;1535;51.098;6.414;2022-08-19T12:57:54;32.40;69.10
3051;DHT22;1535;51.098;6.414;2022-08-19T13:00:22;32.80;66.80
3051;DHT22;1535;51.098;6.414;2022-08-19T13:02:51;33.30;64.90
3051;DHT22;1535;51.098;6.414;2022-08-19T13:05:21;33.10;64.70
3051;DHT22;1535;51.098;6.414;2022-08-19T13:07:51;33.30;62.80
3051;DHT22;1535;51.098;6.414;2022-08-19T13:10:25;33.50;62.60
3051;DHT22;1535;51.098;6.414;2022-08-19T13:12:53;33.80;60.00
3051;DHT22;1535;51.098;6.414;2022-08-19T13:15:22;33.50;56.00
3051;DHT22;1535;51.098;6.414;2022-08-19T13:17:51;32.70;59.20
3051;DHT22;1535;51.098;6.414;2022-08-19T13:20:19;32.20;59.50
3051;DHT22;1535;51.098;6.414;2022-08-19T13:22:47;32.00;58.90
3051;DHT22;1535;51.098;6.414;2022-08-19T13:25:16;32.30;59.90
3051;DHT22;1535;51.098;6.414;2022-08-19T13:27:46;32.90;58.30
3051;DHT22;1535;51.098;6.414;2022-08-19T13:30:16;32.60;57.50
3051;DHT22;1535;51.098;6.414;2022-08-19T13:33:15;32.40;56.50
3051;DHT22;1535;51.098;6.414;2022-08-19T13:35:45;33.60;54.90
3051;DHT22;1535;51.098;6.414;2022-08-19T13:38:14;33.90;55.50
3051;DHT22;1535;51.098;6.414;2022-08-19T13:40:43;33.50;55.50
3051;DHT22;1535;51.098;6.414;2022-08-19T13:43:10;33.20;55.40
3051;DHT22;1535;51.098;6.414;2022-08-19T13:45:37;33.80;55.20
3051;DHT22;1535;51.098;6.414;2022-08-19T13:48:08;33.70;55.20
3051;DHT22;1535;51.098;6.414;2022-08-19T13:50:39;33.30;56.00
3051;DHT22;1535;51.098;6.414;2022-08-19T13:53:08;33.40;54.80
3051;DHT22;1535;51.098;6.414;2022-08-19T13:55:36;33.40;55.50
3051;DHT22;1535;51.098;6.414;2022-08-19T13:58:05;33.30;54.80
3051;DHT22;1535;51.098;6.414;2022-08-19T14:00:35;33.20;55.30
3051;DHT22;1535;51.098;6.414;2022-08-19T14:03:03;33.30;56.00
3051;DHT22;1535;51.098;6.414;2022-08-19T14:05:30;32.60;57.00
3051;DHT22;1535;51.098;6.414;2022-08-19T14:07:58;32.20;58.50
3051;DHT22;1535;51.098;6.414;2022-08-19T14:10:26;31.30;59.90
3051;DHT22;1535;51.098;6.414;2022-08-19T14:12:57;31.20;61.20
3051;DHT22;1535;51.098;6.414;2022-08-19T14:15:27;31.50;61.20
3051;DHT22;1535;51.098;6.414;2022-08-19T14:17:54;31.40;62.80
3051;DHT22;1535;51.098;6.414;2022-08-19T14:20:21;31.60;62.60
3051;DHT22;1535;51.098;6.414;2022-08-19T14:22:49;32.40;60.20
3051;DHT22;1535;51.098;6.414;2022-08-19T14:25:18;31.40;62.10
3051;DHT22;1535;51.098;6.414;2022-08-19T14:27:46;30.50;65.70
3051;DHT22;1535;51.098;6.414;2022-08-19T14:30:15;30.10;69.10
3051;DHT22;1535;51.098;6.414;2022-08-19T14:32:44;30.20;70.40
3051;DHT22;1535;51.098;6.414;2022-08-19T14:35:13;30.70;69.70
3051;DHT22;1535;51.098;6.414;2022-08-19T14:37:41;31.20;68.40
3051;DHT22;1535;51.098;6.414;2022-08-19T14:40:09;31.10;69.10
3051;DHT22;1535;51.098;6.414;2022-08-19T14:42:39;31.20;68.60
3051;DHT22;1535;51.098;6.414;2022-08-19T14:45:07;31.20;69.40
3051;DHT22;1535;51.098;6.414;2022-08-19T14:47:34;31.70;69.20
3051;DHT22;1535;51.098;6.414;2022-08-19T14:50:03;32.10;67.90
3051;DHT22;1535;51.098;6.414;2022-08-19T14:52:32;32.00;67.30
3051;DHT22;1535;51.098;6.414;2022-08-19T14:54:58;31.20;67.80
3051;DHT22;1535;51.098;6.414;2022-08-19T14:57:25;31.00;70.10
3051;DHT22;1535;51.098;6.414;2022-08-19T14:59:53;30.80;71.90
3051;DHT22;1535;51.098;6.414;2022-08-19T15:02:20;30.90;71.80
3051;DHT22;1535;51.098;6.414;2022-08-19T15:04:46;31.90;70.60
3051;DHT22;1535;51.098;6.414;2022-08-19T15:07:15;32.40;67.20
3051;DHT22;1535;51.098;6.414;2022-08-19T15:09:42;32.30;65.00
3051;DHT22;1535;51.098;6.414;2022-08-19T15:12:09;31.90;68.50
3051;DHT22;1535;51.098;6.414;2022-08-19T15:14:36;31.10;71.90
3051;DHT22;1535;51.098;6.414;2022-08-19T15:17:04;30.20;75.30
3051;DHT22;1535;51.098;6.414;2022-08-19T15:19:32;29.50;78.10
3051;DHT22;1535;51.098;6.414;2022-08-19T15:22:01;29.40;79.50
3051;DHT22;1535;51.098;6.414;2022-08-19T15:24:29;28.80;81.30
3051;DHT22;1535;51.098;6.414;2022-08-19T15:26:56;28.70;83.80
3051;DHT22;1535;51.098;6.414;2022-08-19T15:29:23;28.50;85.70
3051;DHT22;1535;51.098;6.414;2022-08-19T15:31:51;28.20;87.20
3051;DHT22;1535;51.098;6.414;2022-08-19T15:34:20;28.10;88.50
3051;DHT22;1535;51.098;6.414;2022-08-19T15:36:49;28.20;87.50
3051;DHT22;1535;51.098;6.414;2022-08-19T15:39:15;28.10;87.40
3051;DHT22;1535;51.098;6.414;2022-08-19T15:41:45;28.20;86.30
3051;DHT22;1535;51.098;6.414;2022-08-19T15:44:15;28.20;88.00
3051;DHT22;1535;51.098;6.414;2022-08-19T15:46:44;28.30;90.00
3051;DHT22;1535;51.098;6.414;2022-08-19T15:49:14;28.30;90.20
3051;DHT22;1535;51.098;6.414;2022-08-19T15:51:43;28.10;90.60
3051;DHT22;1535;51.098;6.414;2022-08-19T15:54:13;28.00;91.10
3051;DHT22;1535;51.098;6.414;2022-08-19T15:56:40;28.00;91.60
3051;DHT22;1535;51.098;6.414;2022-08-19T15:59:27;27.70;92.20
3051;DHT22;1535;51.098;6.414;2022-08-19T16:02:14;27.60;92.70
3051;DHT22;1535;51.098;6.414;2022-08-19T16:04:59;27.50;93.40
3051;DHT22;1535;51.098;6.414;2022-08-19T16:07:44;27.20;94.70
3051;DHT22;1535;51.098;6.414;2022-08-19T16:10:12;27.00;96.10
3051;DHT22;1535;51.098;6.414;2022-08-19T16:12:39;26.60;97.80
3051;DHT22;1535;51.098;6.414;2022-08-19T16:15:09;26.40;99.40